sensor_id;sensor_type;location;lat;lon;timestamp;P1;durP1;ratioP1;P2;durP2;ratioP2
54384;SDS011;40284;52.878;5.998;2024-02-26T00:01:42;19.88;;;12.50;;
54384;SDS011;40284;52.878;5.998;2024-02-26T00:04:11;21.17;;;13.18;;
54384;SDS011;40284;52.878;5.998;2024-02-26T00:06:38;20.50;;;14.23;;
54384;SDS011;40284;52.878;5.998;2024-02-26T00:09:06;19.98;;;13.13;;
54384;SDS011;40284;52.878;5.998;2024-02-26T00:11:32;20.48;;;13.63;;
54384;SDS011;40284;52.878;5.998;2024-02-26T00:13:58;18.80;;;13.93;;
54384;SDS011;40284;52.878;5.998;2024-02-26T00:16:24;19.80;;;13.23;;
54384;SDS011;40284;52.878;5.998;2024-02-26T00:18:50;19.80;;;13.95;;
54384;SDS011;40284;52.878;5.998;2024-02-26T00:21:16;18.80;;;13.07;;
54384;SDS011;40284;52.878;5.998;2024-02-26T00:23:43;20.65;;;13.20;;
54384;SDS011;40284;52.878;5.998;2024-02-26T00:26:09;19.38;;;14.15;;
54384;SDS011;40284;52.878;5.998;2024-02-26T00:28:36;20.27;;;13.30;;
54384;SDS011;40284;52.878;5.998;2024-02-26T00:31:02;20.08;;;13.90;;
54384;SDS011;40284;52.878;5.998;2024-02-26T00:33:28;20.67;;;13.02;;
54384;SDS011;40284;52.878;5.998;2024-02-26T00:35:54;19.58;;;13.13;;
54384;SDS011;40284;52.878;5.998;2024-02-26T00:38:20;21.35;;;13.55;;
54384;SDS011;40284;52.878;5.998;2024-02-26T00:40:46;20.25;;;13.98;;
54384;SDS011;40284;52.878;5.998;2024-02-26T00:43:12;19.65;;;13.13;;
54384;SDS011;40284;52.878;5.998;2024-02-26T00:45:38;19.83;;;12.93;;
54384;SDS011;40284;52.878;5.998;2024-02-26T00:48:04;17.80;;;12.23;;
54384;SDS011;40284;52.878;5.998;2024-02-26T00:50:31;19.27;;;13.52;;
54384;SDS011;40284;52.878;5.998;2024-02-26T00:52:57;20.60;;;14.13;;
54384;SDS011;40284;52.878;5.998;2024-02-26T00:55:23;22.70;;;13.68;;
54384;SDS011;40284;52.878;5.998;2024-02-26T00:57:49;18.50;;;13.40;;
54384;SDS011;40284;52.878;5.998;2024-02-26T01:00:15;19.05;;;13.60;;
54384;SDS011;40284;52.878;5.998;2024-02-26T01:02:42;21.35;;;14.30;;
54384;SDS011;40284;52.878;5.998;2024-02-26T01:05:08;19.52;;;14.20;;
54384;SDS011;40284;52.878;5.998;2024-02-26T01:07:34;21.27;;;14.43;;
54384;SDS011;40284;52.878;5.998;2024-02-26T01:10:01;18.27;;;12.63;;
54384;SDS011;40284;52.878;5.998;2024-02-26T01:12:28;22.35;;;13.93;;
54384;SDS011;40284;52.878;5.998;2024-02-26T01:14:54;19.70;;;13.52;;
54384;SDS011;40284;52.878;5.998;2024-02-26T01:17:20;20.48;;;13.70;;
54384;SDS011;40284;52.878;5.998;2024-02-26T01:19:46;21.23;;;13.63;;
54384;SDS011;40284;52.878;5.998;2024-02-26T01:22:12;21.23;;;14.23;;
54384;SDS011;40284;52.878;5.998;2024-02-26T01:24:38;21.38;;;14.02;;
54384;SDS011;40284;52.878;5.998;2024-02-26T01:27:04;21.08;;;12.98;;
54384;SDS011;40284;52.878;5.998;2024-02-26T01:29:31;21.58;;;13.35;;
54384;SDS011;40284;52.878;5.998;2024-02-26T01:31:57;24.27;;;14.98;;
54384;SDS011;40284;52.878;5.998;2024-02-26T01:34:23;19.58;;;12.55;;
54384;SDS011;40284;52.878;5.998;2024-02-26T01:36:49;20.00;;;13.43;;
54384;SDS011;40284;52.878;5.998;2024-02-26T01:39:15;22.60;;;13.98;;
54384;SDS011;40284;52.878;5.998;2024-02-26T01:41:41;21.98;;;13.20;;
54384;SDS011;40284;52.878;5.998;2024-02-26T01:44:07;21.60;;;14.63;;
54384;SDS011;40284;52.878;5.998;2024-02-26T01:46:34;22.10;;;14.38;;
54384;SDS011;40284;52.878;5.998;2024-02-26T01:49:01;21.90;;;14.05;;
54384;SDS011;40284;52.878;5.998;2024-02-26T01:51:27;23.10;;;14.63;;
54384;SDS011;40284;52.878;5.998;2024-02-26T01:53:53;23.30;;;14.90;;
54384;SDS011;40284;52.878;5.998;2024-02-26T01:56:19;25.50;;;15.27;;
54384;SDS011;40284;52.878;5.998;2024-02-26T01:58:46;25.10;;;16.17;;
54384;SDS011;40284;52.878;5.998;2024-02-26T02:01:12;25.25;;;16.63;;
54384;SDS011;40284;52.878;5.998;2024-02-26T02:03:38;31.35;;;15.60;;
54384;SDS011;40284;52.878;5.998;2024-02-26T02:06:06;28.75;;;17.73;;
54384;SDS011;40284;52.878;5.998;2024-02-26T02:08:33;28.52;;;18.45;;
54384;SDS011;40284;52.878;5.998;2024-02-26T02:11:00;26.45;;;17.05;;
54384;SDS011;40284;52.878;5.998;2024-02-26T02:13:26;28.02;;;17.52;;
54384;SDS011;40284;52.878;5.998;2024-02-26T02:15:52;29.70;;;17.75;;
54384;SDS011;40284;52.878;5.998;2024-02-26T02:18:19;35.45;;;19.80;;
54384;SDS011;40284;52.878;5.998;2024-02-26T02:20:45;28.88;;;18.48;;
54384;SDS011;40284;52.878;5.998;2024-02-26T02:23:11;29.05;;;18.65;;
54384;SDS011;40284;52.878;5.998;2024-02-26T02:25:37;35.63;;;19.30;;
54384;SDS011;40284;52.878;5.998;2024-02-26T02:28:03;29.50;;;18.35;;
54384;SDS011;40284;52.878;5.998;2024-02-26T02:30:30;36.30;;;21.00;;
54384;SDS011;40284;52.878;5.998;2024-02-26T02:32:58;33.95;;;20.10;;
54384;SDS011;40284;52.878;5.998;2024-02-26T02:35:24;36.95;;;22.48;;
54384;SDS011;40284;52.878;5.998;2024-02-26T02:37:51;35.70;;;21.67;;
54384;SDS011;40284;52.878;5.998;2024-02-26T02:40:18;34.70;;;21.88;;
54384;SDS011;40284;52.878;5.998;2024-02-26T02:42:44;36.17;;;21.50;;
54384;SDS011;40284;52.878;5.998;2024-02-26T02:45:10;34.55;;;21.88;;
54384;SDS011;40284;52.878;5.998;2024-02-26T02:47:36;38.80;;;21.48;;
54384;SDS011;40284;52.878;5.998;2024-02-26T02:50:03;34.63;;;21.65;;
54384;SDS011;40284;52.878;5.998;2024-02-26T02:52:29;38.05;;;22.83;;
54384;SDS011;40284;52.878;5.998;2024-02-26T02:54:55;37.90;;;21.35;;
54384;SDS011;40284;52.878;5.998;2024-02-26T02:57:21;37.05;;;23.63;;
54384;SDS011;40284;52.878;5.998;2024-02-26T02:59:47;34.88;;;22.83;;
54384;SDS011;40284;52.878;5.998;2024-02-26T03:02:13;35.72;;;23.60;;
54384;SDS011;40284;52.878;5.998;2024-02-26T03:04:39;37.97;;;23.85;;
54384;SDS011;40284;52.878;5.998;2024-02-26T03:07:05;34.33;;;22.60;;
54384;SDS011;40284;52.878;5.998;2024-02-26T03:09:31;35.45;;;22.33;;
54384;SDS011;40284;52.878;5.998;2024-02-26T03:11:57;36.17;;;22.77;;
54384;SDS011;40284;52.878;5.998;2024-02-26T03:14:23;35.92;;;21.65;;
54384;SDS011;40284;52.878;5.998;2024-02-26T03:16:53;33.55;;;22.48;;
54384;SDS011;40284;52.878;5.998;2024-02-26T03:19:19;30.92;;;20.73;;
54384;SDS011;40284;52.878;5.998;2024-02-26T03:21:45;30.20;;;20.08;;
54384;SDS011;40284;52.878;5.998;2024-02-26T03:24:11;33.00;;;20.38;;
54384;SDS011;40284;52.878;5.998;2024-02-26T03:26:37;29.48;;;19.85;;
54384;SDS011;40284;52.878;5.998;2024-02-26T03:29:04;30.17;;;20.38;;
54384;SDS011;40284;52.878;5.998;2024-02-26T03:31:30;28.25;;;18.90;;
54384;SDS011;40284;52.878;5.998;2024-02-26T03:33:57;30.52;;;20.13;;
54384;SDS011;40284;52.878;5.998;2024-02-26T03:36:23;28.15;;;19.42;;
54384;SDS011;40284;52.878;5.998;2024-02-26T03:38:49;30.92;;;19.83;;
54384;SDS011;40284;52.878;5.998;2024-02-26T03:41:15;31.50;;;19.35;;
54384;SDS011;40284;52.878;5.998;2024-02-26T03:43:41;26.98;;;18.63;;
54384;SDS011;40284;52.878;5.998;2024-02-26T03:46:07;24.35;;;17.40;;
54384;SDS011;40284;52.878;5.998;2024-02-26T03:48:34;27.17;;;18.27;;
54384;SDS011;40284;52.878;5.998;2024-02-26T03:51:00;23.92;;;16.38;;
54384;SDS011;40284;52.878;5.998;2024-02-26T03:53:26;26.15;;;17.70;;
54384;SDS011;40284;52.878;5.998;2024-02-26T03:55:53;23.73;;;17.05;;
54384;SDS011;40284;52.878;5.998;2024-02-26T03:58:20;26.02;;;16.35;;
54384;SDS011;40284;52.878;5.998;2024-02-26T04:00:47;25.98;;;16.75;;
54384;SDS011;40284;52.878;5.998;2024-02-26T04:03:13;20.50;;;14.85;;
54384;SDS011;40284;52.878;5.998;2024-02-26T04:05:39;24.20;;;16.27;;
54384;SDS011;40284;52.878;5.998;2024-02-26T04:08:05;22.48;;;14.65;;
54384;SDS011;40284;52.878;5.998;2024-02-26T04:10:33;22.80;;;15.23;;
54384;SDS011;40284;52.878;5.998;2024-02-26T04:13:04;17.48;;;13.20;;
54384;SDS011;40284;52.878;5.998;2024-02-26T04:15:31;18.40;;;13.27;;
54384;SDS011;40284;52.878;5.998;2024-02-26T04:17:57;20.13;;;13.52;;
54384;SDS011;40284;52.878;5.998;2024-02-26T04:20:23;20.80;;;13.30;;
54384;SDS011;40284;52.878;5.998;2024-02-26T04:22:49;18.75;;;12.65;;
54384;SDS011;40284;52.878;5.998;2024-02-26T04:25:15;19.30;;;12.43;;
54384;SDS011;40284;52.878;5.998;2024-02-26T04:27:41;17.25;;;12.15;;
54384;SDS011;40284;52.878;5.998;2024-02-26T04:30:07;16.90;;;12.23;;
54384;SDS011;40284;52.878;5.998;2024-02-26T04:32:34;15.90;;;11.60;;
54384;SDS011;40284;52.878;5.998;2024-02-26T04:35:00;16.40;;;12.07;;
54384;SDS011;40284;52.878;5.998;2024-02-26T04:37:26;17.10;;;12.07;;
54384;SDS011;40284;52.878;5.998;2024-02-26T04:39:59;16.00;;;11.40;;
54384;SDS011;40284;52.878;5.998;2024-02-26T04:42:25;18.00;;;11.75;;
54384;SDS011;40284;52.878;5.998;2024-02-26T04:44:51;15.18;;;10.98;;
54384;SDS011;40284;52.878;5.998;2024-02-26T04:47:17;17.15;;;10.93;;
54384;SDS011;40284;52.878;5.998;2024-02-26T04:49:43;13.68;;;9.68;;
54384;SDS011;40284;52.878;5.998;2024-02-26T04:52:09;15.40;;;10.85;;
54384;SDS011;40284;52.878;5.998;2024-02-26T04:54:35;15.02;;;10.45;;
54384;SDS011;40284;52.878;5.998;2024-02-26T04:57:01;16.45;;;10.15;;
54384;SDS011;40284;52.878;5.998;2024-02-26T04:59:27;14.98;;;10.20;;
54384;SDS011;40284;52.878;5.998;2024-02-26T05:01:53;15.18;;;11.25;;
54384;SDS011;40284;52.878;5.998;2024-02-26T05:04:20;16.35;;;10.02;;
54384;SDS011;40284;52.878;5.998;2024-02-26T05:06:46;14.07;;;9.70;;
54384;SDS011;40284;52.878;5.998;2024-02-26T05:09:12;12.57;;;9.57;;
54384;SDS011;40284;52.878;5.998;2024-02-26T05:11:38;14.73;;;8.98;;
54384;SDS011;40284;52.878;5.998;2024-02-26T05:14:04;13.63;;;9.52;;
54384;SDS011;40284;52.878;5.998;2024-02-26T05:16:30;12.80;;;8.68;;
54384;SDS011;40284;52.878;5.998;2024-02-26T05:18:56;13.25;;;8.32;;
54384;SDS011;40284;52.878;5.998;2024-02-26T05:21:22;10.90;;;7.85;;
54384;SDS011;40284;52.878;5.998;2024-02-26T05:23:49;11.98;;;7.85;;
54384;SDS011;40284;52.878;5.998;2024-02-26T05:26:21;13.25;;;8.73;;
54384;SDS011;40284;52.878;5.998;2024-02-26T05:28:47;10.40;;;7.35;;
54384;SDS011;40284;52.878;5.998;2024-02-26T05:31:13;10.55;;;8.10;;
54384;SDS011;40284;52.878;5.998;2024-02-26T05:33:39;10.43;;;8.00;;
54384;SDS011;40284;52.878;5.998;2024-02-26T05:36:05;8.43;;;7.15;;
54384;SDS011;40284;52.878;5.998;2024-02-26T05:38:32;9.82;;;6.45;;
54384;SDS011;40284;52.878;5.998;2024-02-26T05:41:01;10.77;;;6.60;;
54384;SDS011;40284;52.878;5.998;2024-02-26T05:43:27;12.23;;;6.85;;
54384;SDS011;40284;52.878;5.998;2024-02-26T05:45:53;7.90;;;5.95;;
54384;SDS011;40284;52.878;5.998;2024-02-26T05:48:19;8.50;;;6.10;;
54384;SDS011;40284;52.878;5.998;2024-02-26T05:50:46;9.52;;;6.10;;
54384;SDS011;40284;52.878;5.998;2024-02-26T05:53:12;10.68;;;6.38;;
54384;SDS011;40284;52.878;5.998;2024-02-26T05:55:38;9.63;;;5.82;;
54384;SDS011;40284;52.878;5.998;2024-02-26T05:58:04;10.60;;;5.97;;
54384;SDS011;40284;52.878;5.998;2024-02-26T06:00:30;8.48;;;5.53;;
54384;SDS011;40284;52.878;5.998;2024-02-26T06:02:57;8.88;;;6.15;;
54384;SDS011;40284;52.878;5.998;2024-02-26T06:05:23;8.73;;;5.30;;
54384;SDS011;40284;52.878;5.998;2024-02-26T06:07:49;10.43;;;5.10;;
54384;SDS011;40284;52.878;5.998;2024-02-26T06:10:15;8.75;;;6.30;;
54384;SDS011;40284;52.878;5.998;2024-02-26T06:12:41;8.25;;;5.38;;
54384;SDS011;40284;52.878;5.998;2024-02-26T06:15:07;6.32;;;5.13;;
54384;SDS011;40284;52.878;5.998;2024-02-26T06:17:34;7.82;;;4.90;;
54384;SDS011;40284;52.878;5.998;2024-02-26T06:20:00;6.90;;;4.97;;
54384;SDS011;40284;52.878;5.998;2024-02-26T06:22:26;6.93;;;4.90;;
54384;SDS011;40284;52.878;5.998;2024-02-26T06:24:52;11.35;;;7.28;;
54384;SDS011;40284;52.878;5.998;2024-02-26T06:27:19;7.93;;;5.35;;
54384;SDS011;40284;52.878;5.998;2024-02-26T06:29:46;13.05;;;5.90;;
54384;SDS011;40284;52.878;5.998;2024-02-26T06:32:13;12.45;;;5.18;;
54384;SDS011;40284;52.878;5.998;2024-02-26T06:34:39;9.95;;;6.05;;
54384;SDS011;40284;52.878;5.998;2024-02-26T06:37:07;9.70;;;6.55;;
54384;SDS011;40284;52.878;5.998;2024-02-26T06:39:33;8.60;;;5.28;;
54384;SDS011;40284;52.878;5.998;2024-02-26T06:41:59;7.00;;;5.35;;
54384;SDS011;40284;52.878;5.998;2024-02-26T06:44:27;9.68;;;5.20;;
54384;SDS011;40284;52.878;5.998;2024-02-26T06:46:57;6.20;;;4.50;;
54384;SDS011;40284;52.878;5.998;2024-02-26T06:49:24;6.35;;;4.43;;
54384;SDS011;40284;52.878;5.998;2024-02-26T06:51:50;5.65;;;4.07;;
54384;SDS011;40284;52.878;5.998;2024-02-26T06:54:16;6.43;;;4.50;;
54384;SDS011;40284;52.878;5.998;2024-02-26T06:56:42;10.77;;;5.03;;
54384;SDS011;40284;52.878;5.998;2024-02-26T06:59:08;6.68;;;4.75;;
54384;SDS011;40284;52.878;5.998;2024-02-26T07:01:35;7.97;;;4.55;;
54384;SDS011;40284;52.878;5.998;2024-02-26T07:04:01;7.28;;;4.35;;
54384;SDS011;40284;52.878;5.998;2024-02-26T07:06:27;6.45;;;4.50;;
54384;SDS011;40284;52.878;5.998;2024-02-26T07:08:53;6.20;;;4.40;;
54384;SDS011;40284;52.878;5.998;2024-02-26T07:11:19;5.95;;;5.00;;
54384;SDS011;40284;52.878;5.998;2024-02-26T07:13:46;6.80;;;4.75;;
54384;SDS011;40284;52.878;5.998;2024-02-26T07:16:12;5.72;;;4.40;;
54384;SDS011;40284;52.878;5.998;2024-02-26T07:18:41;6.72;;;4.25;;
54384;SDS011;40284;52.878;5.998;2024-02-26T07:21:11;5.10;;;4.03;;
54384;SDS011;40284;52.878;5.998;2024-02-26T07:23:37;8.20;;;4.43;;
54384;SDS011;40284;52.878;5.998;2024-02-26T07:26:03;5.50;;;4.53;;
54384;SDS011;40284;52.878;5.998;2024-02-26T07:28:29;6.65;;;4.30;;
54384;SDS011;40284;52.878;5.998;2024-02-26T07:30:56;7.63;;;4.47;;
54384;SDS011;40284;52.878;5.998;2024-02-26T07:33:22;5.20;;;4.30;;
54384;SDS011;40284;52.878;5.998;2024-02-26T07:35:48;4.95;;;3.83;;
54384;SDS011;40284;52.878;5.998;2024-02-26T07:38:14;5.97;;;4.60;;
54384;SDS011;40284;52.878;5.998;2024-02-26T07:40:40;6.85;;;4.70;;
54384;SDS011;40284;52.878;5.998;2024-02-26T07:43:06;5.38;;;4.75;;
54384;SDS011;40284;52.878;5.998;2024-02-26T07:45:32;4.78;;;3.65;;
54384;SDS011;40284;52.878;5.998;2024-02-26T07:47:58;7.90;;;4.82;;
54384;SDS011;40284;52.878;5.998;2024-02-26T07:50:24;5.78;;;4.25;;
54384;SDS011;40284;52.878;5.998;2024-02-26T07:52:50;7.07;;;4.38;;
54384;SDS011;40284;52.878;5.998;2024-02-26T07:55:18;7.38;;;4.50;;
54384;SDS011;40284;52.878;5.998;2024-02-26T07:57:44;5.70;;;4.40;;
54384;SDS011;40284;52.878;5.998;2024-02-26T08:00:10;5.82;;;4.03;;
54384;SDS011;40284;52.878;5.998;2024-02-26T08:02:37;8.05;;;4.70;;
54384;SDS011;40284;52.878;5.998;2024-02-26T08:05:03;7.93;;;4.05;;
54384;SDS011;40284;52.878;5.998;2024-02-26T08:07:29;7.28;;;4.07;;
54384;SDS011;40284;52.878;5.998;2024-02-26T08:09:55;6.63;;;3.90;;
54384;SDS011;40284;52.878;5.998;2024-02-26T08:12:22;6.45;;;3.95;;
54384;SDS011;40284;52.878;5.998;2024-02-26T08:14:49;6.60;;;3.65;;
54384;SDS011;40284;52.878;5.998;2024-02-26T08:17:15;8.23;;;4.40;;
54384;SDS011;40284;52.878;5.998;2024-02-26T08:19:41;10.15;;;4.18;;
54384;SDS011;40284;52.878;5.998;2024-02-26T08:22:07;6.85;;;4.03;;
54384;SDS011;40284;52.878;5.998;2024-02-26T08:24:35;4.35;;;3.55;;
54384;SDS011;40284;52.878;5.998;2024-02-26T08:27:01;5.95;;;5.32;;
54384;SDS011;40284;52.878;5.998;2024-02-26T08:29:27;5.63;;;3.80;;
54384;SDS011;40284;52.878;5.998;2024-02-26T08:31:53;6.43;;;4.07;;
54384;SDS011;40284;52.878;5.998;2024-02-26T08:34:19;6.20;;;3.92;;
54384;SDS011;40284;52.878;5.998;2024-02-26T08:36:45;7.47;;;4.13;;
54384;SDS011;40284;52.878;5.998;2024-02-26T08:39:11;7.10;;;4.30;;
54384;SDS011;40284;52.878;5.998;2024-02-26T08:41:38;6.03;;;4.35;;
54384;SDS011;40284;52.878;5.998;2024-02-26T08:44:04;7.03;;;4.20;;
54384;SDS011;40284;52.878;5.998;2024-02-26T08:46:30;7.50;;;3.90;;
54384;SDS011;40284;52.878;5.998;2024-02-26T08:48:57;8.55;;;4.38;;
54384;SDS011;40284;52.878;5.998;2024-02-26T08:51:23;7.93;;;4.82;;
54384;SDS011;40284;52.878;5.998;2024-02-26T08:53:49;6.82;;;3.80;;
54384;SDS011;40284;52.878;5.998;2024-02-26T08:56:16;6.45;;;4.28;;
54384;SDS011;40284;52.878;5.998;2024-02-26T08:58:45;5.25;;;3.70;;
54384;SDS011;40284;52.878;5.998;2024-02-26T09:01:13;6.57;;;4.15;;
54384;SDS011;40284;52.878;5.998;2024-02-26T09:03:39;4.90;;;3.30;;
54384;SDS011;40284;52.878;5.998;2024-02-26T09:06:06;6.75;;;3.53;;
54384;SDS011;40284;52.878;5.998;2024-02-26T09:08:32;6.45;;;3.70;;
54384;SDS011;40284;52.878;5.998;2024-02-26T09:10:58;5.85;;;3.85;;
54384;SDS011;40284;52.878;5.998;2024-02-26T09:13:24;5.93;;;4.00;;
54384;SDS011;40284;52.878;5.998;2024-02-26T09:15:50;4.78;;;3.58;;
54384;SDS011;40284;52.878;5.998;2024-02-26T09:18:16;5.15;;;3.92;;
54384;SDS011;40284;52.878;5.998;2024-02-26T09:20:42;4.70;;;3.50;;
54384;SDS011;40284;52.878;5.998;2024-02-26T09:23:09;8.13;;;3.97;;
54384;SDS011;40284;52.878;5.998;2024-02-26T09:25:35;4.28;;;3.47;;
54384;SDS011;40284;52.878;5.998;2024-02-26T09:28:01;5.78;;;3.40;;
54384;SDS011;40284;52.878;5.998;2024-02-26T09:30:28;6.38;;;3.60;;
54384;SDS011;40284;52.878;5.998;2024-02-26T09:32:54;4.32;;;3.15;;
54384;SDS011;40284;52.878;5.998;2024-02-26T09:35:20;5.40;;;3.47;;
54384;SDS011;40284;52.878;5.998;2024-02-26T09:37:46;4.85;;;3.58;;
54384;SDS011;40284;52.878;5.998;2024-02-26T09:40:14;5.25;;;3.70;;
54384;SDS011;40284;52.878;5.998;2024-02-26T09:42:44;4.65;;;3.20;;
54384;SDS011;40284;52.878;5.998;2024-02-26T09:45:18;3.90;;;3.20;;
54384;SDS011;40284;52.878;5.998;2024-02-26T09:47:44;5.57;;;2.80;;
54384;SDS011;40284;52.878;5.998;2024-02-26T09:50:11;6.07;;;3.03;;
54384;SDS011;40284;52.878;5.998;2024-02-26T09:52:39;4.50;;;3.25;;
54384;SDS011;40284;52.878;5.998;2024-02-26T09:55:07;6.28;;;3.03;;
54384;SDS011;40284;52.878;5.998;2024-02-26T09:57:35;4.50;;;2.88;;
54384;SDS011;40284;52.878;5.998;2024-02-26T10:00:02;4.00;;;3.03;;
54384;SDS011;40284;52.878;5.998;2024-02-26T10:02:30;3.42;;;2.40;;
54384;SDS011;40284;52.878;5.998;2024-02-26T10:04:56;3.70;;;2.53;;
54384;SDS011;40284;52.878;5.998;2024-02-26T10:07:26;6.88;;;2.72;;
54384;SDS011;40284;52.878;5.998;2024-02-26T10:09:54;7.20;;;3.05;;
54384;SDS011;40284;52.878;5.998;2024-02-26T10:12:21;5.00;;;2.50;;
54384;SDS011;40284;52.878;5.998;2024-02-26T10:14:47;5.57;;;2.80;;
54384;SDS011;40284;52.878;5.998;2024-02-26T10:17:13;3.60;;;2.47;;
54384;SDS011;40284;52.878;5.998;2024-02-26T10:19:40;6.35;;;2.85;;
54384;SDS011;40284;52.878;5.998;2024-02-26T10:22:06;4.68;;;2.55;;
54384;SDS011;40284;52.878;5.998;2024-02-26T10:24:32;4.22;;;2.72;;
54384;SDS011;40284;52.878;5.998;2024-02-26T10:26:59;6.53;;;2.90;;
54384;SDS011;40284;52.878;5.998;2024-02-26T10:29:25;5.10;;;3.20;;
54384;SDS011;40284;52.878;5.998;2024-02-26T10:31:52;3.72;;;2.58;;
54384;SDS011;40284;52.878;5.998;2024-02-26T10:34:18;4.53;;;2.55;;
54384;SDS011;40284;52.878;5.998;2024-02-26T10:36:44;4.22;;;2.65;;
54384;SDS011;40284;52.878;5.998;2024-02-26T10:39:13;4.38;;;2.50;;
54384;SDS011;40284;52.878;5.998;2024-02-26T10:41:40;5.05;;;2.70;;
54384;SDS011;40284;52.878;5.998;2024-02-26T10:44:08;3.33;;;2.70;;
54384;SDS011;40284;52.878;5.998;2024-02-26T10:46:36;5.25;;;2.63;;
54384;SDS011;40284;52.878;5.998;2024-02-26T10:49:02;4.38;;;2.72;;
54384;SDS011;40284;52.878;5.998;2024-02-26T10:51:31;4.10;;;2.78;;
54384;SDS011;40284;52.878;5.998;2024-02-26T10:53:58;4.93;;;2.38;;
54384;SDS011;40284;52.878;5.998;2024-02-26T10:56:29;3.78;;;2.28;;
54384;SDS011;40284;52.878;5.998;2024-02-26T10:58:59;4.28;;;2.30;;
54384;SDS011;40284;52.878;5.998;2024-02-26T11:01:25;3.53;;;2.30;;
54384;SDS011;40284;52.878;5.998;2024-02-26T11:03:54;4.03;;;2.65;;
54384;SDS011;40284;52.878;5.998;2024-02-26T11:06:21;4.15;;;2.58;;
54384;SDS011;40284;52.878;5.998;2024-02-26T11:08:48;3.78;;;2.83;;
54384;SDS011;40284;52.878;5.998;2024-02-26T11:11:15;6.60;;;2.40;;
54384;SDS011;40284;52.878;5.998;2024-02-26T11:13:44;5.30;;;2.30;;
54384;SDS011;40284;52.878;5.998;2024-02-26T11:16:14;3.47;;;2.33;;
54384;SDS011;40284;52.878;5.998;2024-02-26T11:18:41;3.00;;;2.17;;
54384;SDS011;40284;52.878;5.998;2024-02-26T11:21:07;3.03;;;2.03;;
54384;SDS011;40284;52.878;5.998;2024-02-26T11:23:34;5.72;;;2.70;;
54384;SDS011;40284;52.878;5.998;2024-02-26T11:26:02;2.63;;;1.92;;
54384;SDS011;40284;52.878;5.998;2024-02-26T11:28:29;3.80;;;2.20;;
54384;SDS011;40284;52.878;5.998;2024-02-26T11:30:58;3.58;;;2.10;;
54384;SDS011;40284;52.878;5.998;2024-02-26T11:33:25;3.42;;;1.98;;
54384;SDS011;40284;52.878;5.998;2024-02-26T11:35:51;3.05;;;1.85;;
54384;SDS011;40284;52.878;5.998;2024-02-26T11:38:19;3.63;;;2.08;;
54384;SDS011;40284;52.878;5.998;2024-02-26T11:40:46;6.43;;;2.08;;
54384;SDS011;40284;52.878;5.998;2024-02-26T11:43:13;2.65;;;1.80;;
54384;SDS011;40284;52.878;5.998;2024-02-26T11:48:11;3.00;;;1.98;;
54384;SDS011;40284;52.878;5.998;2024-02-26T11:50:50;4.13;;;2.05;;
54384;SDS011;40284;52.878;5.998;2024-02-26T11:53:21;3.08;;;2.10;;
54384;SDS011;40284;52.878;5.998;2024-02-26T11:55:48;4.00;;;2.03;;
54384;SDS011;40284;52.878;5.998;2024-02-26T11:58:14;2.70;;;1.70;;
54384;SDS011;40284;52.878;5.998;2024-02-26T12:00:40;4.15;;;1.90;;
54384;SDS011;40284;52.878;5.998;2024-02-26T12:03:07;4.57;;;1.88;;
54384;SDS011;40284;52.878;5.998;2024-02-26T12:05:33;2.35;;;1.50;;
54384;SDS011;40284;52.878;5.998;2024-02-26T12:08:04;2.15;;;1.70;;
54384;SDS011;40284;52.878;5.998;2024-02-26T12:10:37;4.45;;;2.00;;
54384;SDS011;40284;52.878;5.998;2024-02-26T12:15:38;5.53;;;1.85;;
54384;SDS011;40284;52.878;5.998;2024-02-26T12:18:05;4.63;;;2.03;;
54384;SDS011;40284;52.878;5.998;2024-02-26T12:20:33;3.20;;;2.25;;
54384;SDS011;40284;52.878;5.998;2024-02-26T12:23:00;5.30;;;2.38;;
54384;SDS011;40284;52.878;5.998;2024-02-26T12:25:28;8.07;;;1.88;;
54384;SDS011;40284;52.878;5.998;2024-02-26T12:27:54;2.55;;;1.83;;
54384;SDS011;40284;52.878;5.998;2024-02-26T12:30:21;3.80;;;2.25;;
54384;SDS011;40284;52.878;5.998;2024-02-26T12:32:48;3.92;;;2.10;;
54384;SDS011;40284;52.878;5.998;2024-02-26T12:35:14;5.97;;;2.22;;
54384;SDS011;40284;52.878;5.998;2024-02-26T12:37:41;3.00;;;2.10;;
54384;SDS011;40284;52.878;5.998;2024-02-26T12:40:09;3.20;;;2.28;;
54384;SDS011;40284;52.878;5.998;2024-02-26T12:42:36;6.57;;;2.40;;
54384;SDS011;40284;52.878;5.998;2024-02-26T12:45:08;4.65;;;2.85;;
54384;SDS011;40284;52.878;5.998;2024-02-26T12:47:37;6.55;;;2.50;;
54384;SDS011;40284;52.878;5.998;2024-02-26T12:50:04;6.68;;;2.78;;
54384;SDS011;40284;52.878;5.998;2024-02-26T12:52:31;4.55;;;3.03;;
54384;SDS011;40284;52.878;5.998;2024-02-26T12:54:57;6.40;;;3.20;;
54384;SDS011;40284;52.878;5.998;2024-02-26T12:57:23;9.55;;;4.32;;
54384;SDS011;40284;52.878;5.998;2024-02-26T12:59:50;6.20;;;3.38;;
54384;SDS011;40284;52.878;5.998;2024-02-26T13:02:16;8.90;;;3.83;;
54384;SDS011;40284;52.878;5.998;2024-02-26T13:04:42;7.30;;;3.45;;
54384;SDS011;40284;52.878;5.998;2024-02-26T13:07:09;9.73;;;4.25;;
54384;SDS011;40284;52.878;5.998;2024-02-26T13:09:35;6.03;;;3.30;;
54384;SDS011;40284;52.878;5.998;2024-02-26T13:12:05;5.80;;;3.88;;
54384;SDS011;40284;52.878;5.998;2024-02-26T13:14:31;6.97;;;3.63;;
54384;SDS011;40284;52.878;5.998;2024-02-26T13:16:59;4.50;;;3.50;;
54384;SDS011;40284;52.878;5.998;2024-02-26T13:19:25;8.90;;;4.03;;
54384;SDS011;40284;52.878;5.998;2024-02-26T13:21:52;6.88;;;4.03;;
54384;SDS011;40284;52.878;5.998;2024-02-26T13:24:22;4.05;;;3.53;;
54384;SDS011;40284;52.878;5.998;2024-02-26T13:26:56;6.20;;;3.65;;
54384;SDS011;40284;52.878;5.998;2024-02-26T13:29:22;6.63;;;3.75;;
54384;SDS011;40284;52.878;5.998;2024-02-26T13:31:54;18.30;;;4.90;;
54384;SDS011;40284;52.878;5.998;2024-02-26T13:34:27;6.35;;;3.80;;
54384;SDS011;40284;52.878;5.998;2024-02-26T13:36:54;5.22;;;3.95;;
54384;SDS011;40284;52.878;5.998;2024-02-26T13:39:23;6.35;;;4.38;;
54384;SDS011;40284;52.878;5.998;2024-02-26T13:41:50;5.72;;;4.60;;
54384;SDS011;40284;52.878;5.998;2024-02-26T13:44:16;7.85;;;4.45;;
54384;SDS011;40284;52.878;5.998;2024-02-26T13:46:42;6.03;;;3.92;;
54384;SDS011;40284;52.878;5.998;2024-02-26T13:49:09;6.78;;;4.10;;
54384;SDS011;40284;52.878;5.998;2024-02-26T13:51:40;7.63;;;4.38;;
54384;SDS011;40284;52.878;5.998;2024-02-26T13:54:07;8.80;;;5.18;;
54384;SDS011;40284;52.878;5.998;2024-02-26T13:56:34;8.55;;;5.18;;
54384;SDS011;40284;52.878;5.998;2024-02-26T13:59:00;6.97;;;5.05;;
54384;SDS011;40284;52.878;5.998;2024-02-26T14:01:26;7.82;;;4.43;;
54384;SDS011;40284;52.878;5.998;2024-02-26T14:03:53;6.50;;;4.45;;
54384;SDS011;40284;52.878;5.998;2024-02-26T14:06:22;9.20;;;5.18;;
54384;SDS011;40284;52.878;5.998;2024-02-26T14:08:48;8.43;;;4.32;;
54384;SDS011;40284;52.878;5.998;2024-02-26T14:11:14;9.30;;;6.35;;
54384;SDS011;40284;52.878;5.998;2024-02-26T14:13:40;6.78;;;5.00;;
54384;SDS011;40284;52.878;5.998;2024-02-26T14:16:07;7.22;;;4.47;;
54384;SDS011;40284;52.878;5.998;2024-02-26T14:18:33;6.22;;;4.63;;
54384;SDS011;40284;52.878;5.998;2024-02-26T14:20:59;9.88;;;5.05;;
54384;SDS011;40284;52.878;5.998;2024-02-26T14:23:25;7.43;;;4.90;;
54384;SDS011;40284;52.878;5.998;2024-02-26T14:25:51;7.90;;;4.45;;
54384;SDS011;40284;52.878;5.998;2024-02-26T14:28:17;9.50;;;5.65;;
54384;SDS011;40284;52.878;5.998;2024-02-26T14:30:43;8.55;;;4.40;;
54384;SDS011;40284;52.878;5.998;2024-02-26T14:33:09;6.22;;;4.53;;
54384;SDS011;40284;52.878;5.998;2024-02-26T14:35:35;14.60;;;5.53;;
54384;SDS011;40284;52.878;5.998;2024-02-26T14:38:01;8.10;;;4.65;;
54384;SDS011;40284;52.878;5.998;2024-02-26T14:40:27;6.60;;;4.45;;